Time;durP1;ratioP1;P1;durP2;ratioP2;P2;SDS_P1;SDS_P2;PMS_P1;PMS_P2;Temp;Humidity;BMP_temperature;BMP_pressure;BME280_temperature;BME280_humidity;BME280_pressure;Samples;Min_cycle;Max_cycle;Signal;HPM_P1;HPM_P2
2021/01/22 00:02:01;;;;;;;0.57;0.53;;;;;;;9.32;74.76;97575.28;4983492;28;20206;-74
2021/01/22 00:04:27;;;;;;;0.67;0.67;;;;;;;9.33;74.91;97542.25;4985990;28;20939;-74
2021/01/22 00:06:53;;;;;;;0.80;0.60;;;;;;;9.36;74.41;97538.66;4982490;28;20207;-75
2021/01/22 00:09:20;;;;;;;1.20;0.60;;;;;;;9.37;74.56;97522.09;4984006;28;20254;-75
2021/01/22 00:11:45;;;;;;;0.60;0.60;;;;;;;9.42;74.23;97539.13;4980253;28;20265;-74
2021/01/22 00:14:11;;;;;;;1.37;0.77;;;;;;;9.47;74.08;97533.63;4981853;28;20654;-74
2021/01/22 00:16:38;;;;;;;0.70;0.70;;;;;;;9.47;74.68;97531.00;4984183;28;20207;-75
2021/01/22 00:19:04;;;;;;;0.70;0.60;;;;;;;9.51;73.68;97519.47;4983500;28;20245;-75
2021/01/22 00:21:30;;;;;;;0.90;0.57;;;;;;;9.59;73.08;97538.06;4985843;28;20580;-75
2021/01/22 00:23:56;;;;;;;0.60;0.60;;;;;;;9.58;73.43;97514.75;4978499;28;20207;-75
2021/01/22 00:26:22;;;;;;;0.60;0.60;;;;;;;9.57;73.03;97505.25;4983309;28;20202;-74
2021/01/22 00:28:50;;;;;;;0.80;0.80;;;;;;;9.61;72.96;97496.31;4983485;28;20229;-75
2021/01/22 00:31:16;;;;;;;0.60;0.60;;;;;;;9.61;73.03;97499.75;4976606;28;20695;-75
2021/01/22 00:33:45;;;;;;;0.60;0.60;;;;;;;9.60;72.99;97500.69;4979471;28;20708;-74
2021/01/22 00:36:11;;;;;;;1.13;0.80;;;;;;;9.66;73.20;97489.06;4979496;28;20222;-74
2021/01/22 00:38:37;;;;;;;0.60;0.60;;;;;;;9.63;73.37;97497.03;4981125;28;20235;-74
2021/01/22 00:41:03;;;;;;;0.50;0.50;;;;;;;9.59;72.90;97514.63;4982484;28;20203;-75
2021/01/22 00:43:29;;;;;;;0.70;0.40;;;;;;;9.64;72.90;97511.75;4983619;28;20211;-74
2021/01/22 00:45:55;;;;;;;0.57;0.57;;;;;;;9.62;71.94;97496.22;4984934;28;20215;-74
2021/01/22 00:48:21;;;;;;;0.63;0.60;;;;;;;9.66;72.13;97495.09;4983992;28;20230;-74
2021/01/22 00:50:48;;;;;;;0.50;0.50;;;;;;;9.65;72.30;97492.56;4986468;28;20207;-74
2021/01/22 00:53:14;;;;;;;0.67;0.63;;;;;;;9.65;72.05;97488.22;4984949;28;20226;-75
2021/01/22 00:55:40;;;;;;;1.50;0.70;;;;;;;9.68;72.48;97497.59;4988176;28;20222;-74
2021/01/22 00:58:06;;;;;;;0.60;0.50;;;;;;;9.69;71.79;97483.63;4980251;28;20710;-75
2021/01/22 01:00:33;;;;;;;0.53;0.53;;;;;;;9.70;71.77;97475.72;4985909;28;20310;-75
2021/01/22 01:02:59;;;;;;;0.70;0.70;;;;;;;9.67;72.51;97473.34;4979762;28;20207;-74
2021/01/22 01:05:25;;;;;;;0.63;0.63;;;;;;;9.72;72.27;97479.06;4989204;28;20276;-74
2021/01/22 01:07:51;;;;;;;0.73;0.53;;;;;;;9.74;72.29;97464.19;4980057;28;20227;-75
2021/01/22 01:10:17;;;;;;;0.60;0.60;;;;;;;9.74;72.41;97465.97;4982768;28;20266;-74
2021/01/22 01:12:43;;;;;;;0.50;0.50;;;;;;;9.68;72.08;97458.53;4977230;28;20204;-74
2021/01/22 01:15:10;;;;;;;0.60;0.60;;;;;;;9.70;72.02;97472.31;4987234;28;20248;-75
2021/01/22 01:17:36;;;;;;;0.60;0.60;;;;;;;9.71;72.13;97467.00;4978000;28;20263;-74
2021/01/22 01:20:03;;;;;;;0.60;0.60;;;;;;;9.70;72.25;97459.28;4987193;28;20670;-74
2021/01/22 01:22:31;;;;;;;0.63;0.50;;;;;;;9.68;72.09;97446.34;4983595;28;20214;-74
2021/01/22 01:24:57;;;;;;;0.60;0.60;;;;;;;9.69;72.25;97449.78;4989828;28;20219;-74
2021/01/22 01:27:23;;;;;;;0.93;0.60;;;;;;;9.67;72.18;97462.91;4978745;28;20649;-75
2021/01/22 01:29:49;;;;;;;0.60;0.60;;;;;;;9.67;72.20;97443.84;4980225;28;20220;-74
2021/01/22 01:32:15;;;;;;;1.20;0.70;;;;;;;9.71;72.10;97461.78;4979597;28;20202;-74
2021/01/22 01:34:41;;;;;;;1.00;0.90;;;;;;;9.74;71.61;97458.16;4986075;28;20259;-75
2021/01/22 01:37:06;;;;;;;0.70;0.60;;;;;;;9.78;71.27;97448.38;4986163;28;20273;-74
2021/01/22 01:39:32;;;;;;;0.70;0.70;;;;;;;9.76;71.75;97427.63;4991263;28;20273;-74
2021/01/22 01:41:59;;;;;;;0.77;0.70;;;;;;;9.79;71.77;97456.09;4982762;28;20204;-75
2021/01/22 01:44:25;;;;;;;0.60;0.60;;;;;;;9.74;72.22;97455.53;4985309;28;20224;-75
2021/01/22 01:46:51;;;;;;;0.57;0.57;;;;;;;9.74;72.15;97455.53;4981150;28;20238;-75
2021/01/22 01:49:17;;;;;;;0.70;0.70;;;;;;;9.79;71.91;97434.41;4986229;28;20226;-75
2021/01/22 01:51:43;;;;;;;0.70;0.70;;;;;;;9.79;72.32;97440.47;4988602;28;20209;-75
2021/01/22 01:54:09;;;;;;;0.60;0.60;;;;;;;9.79;72.21;97418.78;4983152;28;20301;-74
2021/01/22 01:56:36;;;;;;;0.83;0.83;;;;;;;9.79;72.70;97422.22;4984027;28;20196;-75
2021/01/22 01:59:03;;;;;;;0.70;0.70;;;;;;;9.82;72.89;97415.97;4982642;28;20712;-75
2021/01/22 02:01:29;;;;;;;0.87;0.80;;;;;;;9.79;72.68;97427.44;4985106;28;20213;-75
2021/01/22 02:03:56;;;;;;;0.77;0.70;;;;;;;9.79;72.78;97414.41;4981890;28;20210;-75
2021/01/22 02:06:22;;;;;;;1.17;1.00;;;;;;;9.74;72.65;97406.88;4985842;28;20203;-75
2021/01/22 02:08:50;;;;;;;0.80;0.80;;;;;;;9.69;72.96;97414.19;4981517;28;20296;-75
2021/01/22 02:11:17;;;;;;;0.80;0.80;;;;;;;9.71;72.93;97396.69;4980788;28;20214;-74
2021/01/22 02:13:45;;;;;;;0.70;0.60;;;;;;;9.68;72.66;97404.69;4980856;28;20235;-75
2021/01/22 02:16:12;;;;;;;1.33;0.90;;;;;;;9.63;72.80;97390.28;4987488;28;20204;-75
2021/01/22 02:18:41;;;;;;;0.70;0.70;;;;;;;9.57;72.93;97386.28;4981331;28;20235;-75
2021/01/22 02:21:17;;;;;;;0.80;0.80;;;;;;;9.52;73.42;97404.81;4991068;28;20584;-75
2021/01/22 02:23:45;;;;;;;0.87;0.87;;;;;;;9.50;73.59;97398.88;4991822;28;20206;-75
2021/01/22 02:26:39;;;;;;;1.23;0.80;;;;;;;9.53;72.79;97377.88;4987606;28;20211;-74
2021/01/22 02:29:06;;;;;;;1.50;0.90;;;;;;;9.54;72.60;97379.53;4978417;28;20238;-74
2021/01/22 02:31:35;;;;;;;0.80;0.70;;;;;;;9.52;72.94;97391.81;4986131;28;20207;-75
2021/01/22 02:34:04;;;;;;;0.70;0.70;;;;;;;9.54;72.91;97384.72;4984199;28;20231;-74
2021/01/22 02:36:33;;;;;;;0.83;0.80;;;;;;;9.57;72.55;97383.69;4986505;28;20207;-74
2021/01/22 02:39:02;;;;;;;3.43;1.83;;;;;;;9.55;72.24;97364.72;4983145;28;20230;-74
2021/01/22 02:41:30;;;;;;;1.43;1.10;;;;;;;9.56;72.79;97352.56;4990732;28;20686;-74
2021/01/22 02:43:57;;;;;;;1.00;0.87;;;;;;;9.51;72.84;97369.31;4993186;28;20674;-74
2021/01/22 02:46:24;;;;;;;0.90;0.80;;;;;;;9.56;72.62;97358.59;4987925;28;20204;-74
2021/01/22 02:48:51;;;;;;;0.70;0.70;;;;;;;9.51;72.18;97347.63;4987416;28;20276;-74
2021/01/22 02:51:17;;;;;;;0.93;0.87;;;;;;;9.50;72.92;97359.81;4981965;28;20687;-74
2021/01/22 02:53:43;;;;;;;1.07;0.93;;;;;;;9.50;72.49;97349.41;4980557;28;20313;-74
2021/01/22 02:56:13;;;;;;;1.03;1.03;;;;;;;9.49;71.99;97357.31;4992153;28;20232;-74
2021/01/22 02:58:47;;;;;;;1.20;0.83;;;;;;;9.53;71.88;97357.03;4986527;28;20229;-74
2021/01/22 03:01:18;;;;;;;1.47;0.87;;;;;;;9.55;72.29;97349.09;4976515;28;20211;-74
2021/01/22 03:03:53;;;;;;;0.97;0.90;;;;;;;9.53;71.82;97366.59;4978565;28;20248;-74
2021/01/22 03:06:23;;;;;;;0.80;0.80;;;;;;;9.54;71.80;97348.28;4972636;28;20203;-74
2021/01/22 03:08:53;;;;;;;1.17;0.70;;;;;;;9.61;71.03;97340.06;4975584;28;20249;-74
2021/01/22 03:11:20;;;;;;;1.00;0.90;;;;;;;9.61;71.73;97340.06;4973847;28;20203;-74
2021/01/22 03:13:49;;;;;;;1.13;0.90;;;;;;;9.66;70.80;97338.84;4975433;28;20237;-74
2021/01/22 03:16:15;;;;;;;1.70;0.80;;;;;;;9.70;71.22;97319.47;4974312;28;20678;-74
2021/01/22 03:18:56;;;;;;;1.73;0.80;;;;;;;9.67;71.31;97340.50;4976961;28;20225;-74
2021/01/22 03:21:22;;;;;;;0.73;0.73;;;;;;;9.67;71.23;97327.50;4974877;28;20704;-74
2021/01/22 03:23:50;;;;;;;1.27;1.10;;;;;;;9.68;71.21;97331.75;4977042;28;20290;-74
2021/01/22 03:26:16;;;;;;;1.63;0.90;;;;;;;9.70;71.10;97323.84;4984587;28;20214;-74
2021/01/22 03:28:42;;;;;;;1.43;0.90;;;;;;;9.70;71.32;97344.69;4986640;28;20230;-74
2021/01/22 03:31:08;;;;;;;1.00;0.90;;;;;;;9.75;70.08;97339.97;4976030;28;20215;-74
2021/01/22 03:33:35;;;;;;;1.70;0.90;;;;;;;9.79;70.20;97318.03;4977257;28;20241;-74
2021/01/22 03:36:00;;;;;;;0.93;0.70;;;;;;;9.81;70.11;97338.75;4975706;28;20233;-74
2021/01/22 03:38:26;;;;;;;2.70;0.90;;;;;;;9.83;69.31;97331.66;4977702;28;20596;-74
2021/01/22 03:40:52;;;;;;;0.90;0.80;;;;;;;9.83;69.83;97331.66;4976344;28;20243;-74
2021/01/22 03:43:18;;;;;;;0.77;0.60;;;;;;;9.87;69.50;97320.09;4981960;28;20206;-74
2021/01/22 03:45:44;;;;;;;1.17;0.70;;;;;;;9.86;69.24;97324.50;4976878;28;20702;-74
2021/01/22 03:48:10;;;;;;;1.80;0.70;;;;;;;9.86;69.48;97327.09;4977664;28;20776;-74
2021/01/22 03:50:36;;;;;;;2.13;0.87;;;;;;;9.93;69.40;97325.78;4980551;28;20617;-74
2021/01/22 03:53:02;;;;;;;0.70;0.70;;;;;;;9.95;68.96;97328.28;4978569;28;20207;-74
2021/01/22 03:55:28;;;;;;;0.70;0.60;;;;;;;9.91;68.74;97309.41;4978581;28;20222;-74
2021/01/22 03:57:54;;;;;;;1.30;0.80;;;;;;;9.93;69.15;97343.19;4985274;28;20230;-74
2021/01/22 04:00:20;;;;;;;0.57;0.57;;;;;;;9.91;69.27;97326.78;4979134;28;20280;-74
2021/01/22 04:02:46;;;;;;;1.43;0.90;;;;;;;9.94;69.54;97324.00;4984634;28;20202;-74
2021/01/22 04:05:14;;;;;;;1.23;0.93;;;;;;;9.88;69.83;97324.41;4983123;28;20299;-74
2021/01/22 04:07:40;;;;;;;0.53;0.53;;;;;;;9.87;69.87;97320.97;4975746;28;20759;-74
2021/01/22 04:10:07;;;;;;;2.57;0.60;;;;;;;9.84;69.83;97320.34;4980360;28;20213;-74
2021/01/22 04:12:33;;;;;;;1.20;0.70;;;;;;;9.87;69.85;97315.75;4972905;28;20211;-74
2021/01/22 04:14:59;;;;;;;1.10;0.73;;;;;;;9.89;69.37;97316.50;4983851;28;20238;-74
2021/01/22 04:17:25;;;;;;;1.10;0.60;;;;;;;9.87;68.88;97328.78;4975085;28;20199;-74
2021/01/22 04:19:53;;;;;;;0.93;0.80;;;;;;;9.93;69.18;97304.94;4989710;28;20239;-74
2021/01/22 04:22:18;;;;;;;1.23;0.60;;;;;;;9.94;68.78;97337.84;4982579;28;20668;-74
2021/01/22 04:24:45;;;;;;;1.30;0.63;;;;;;;9.94;69.04;97303.97;4989786;28;20335;-74
2021/01/22 04:27:11;;;;;;;1.07;0.47;;;;;;;9.96;68.75;97313.47;4979882;28;20230;-74
2021/01/22 04:29:37;;;;;;;1.37;0.60;;;;;;;9.97;68.64;97349.00;4990526;28;20740;-74
2021/01/22 04:32:04;;;;;;;1.93;0.70;;;;;;;10.00;68.78;97336.59;4980372;28;20213;-74
2021/01/22 04:34:30;;;;;;;0.70;0.70;;;;;;;10.01;69.09;97335.69;4987956;28;20329;-74
2021/01/22 04:36:56;;;;;;;1.03;0.50;;;;;;;10.06;68.92;97322.34;4980426;28;20227;-74
2021/01/22 04:39:21;;;;;;;1.63;0.60;;;;;;;10.05;68.75;97347.56;4989919;28;20281;-75
2021/01/22 04:41:55;;;;;;;2.00;0.70;;;;;;;10.04;69.12;97356.31;4979931;28;20646;-74
2021/01/22 04:44:26;;;;;;;1.20;0.70;;;;;;;10.02;69.62;97352.16;4984892;28;20213;-75
2021/01/22 04:46:53;;;;;;;0.53;0.53;;;;;;;9.94;70.88;97371.72;4980707;28;20204;-74
2021/01/22 04:49:20;;;;;;;0.73;0.57;;;;;;;9.83;72.51;97431.53;4991969;28;20257;-74
2021/01/22 04:51:46;;;;;;;2.87;0.50;;;;;;;8.58;75.39;97492.09;4985224;28;20625;-75
2021/01/22 04:54:20;;;;;;;4.70;1.40;;;;;;;7.08;83.21;97497.69;4989642;28;20230;-75
2021/01/22 04:56:47;;;;;;;1.53;0.57;;;;;;;6.54;84.73;97509.94;4978404;28;20658;-76
2021/01/22 04:59:20;;;;;;;1.53;0.50;;;;;;;6.39;85.83;97513.31;4995084;28;20231;-74
2021/01/22 05:01:46;;;;;;;1.13;0.40;;;;;;;6.32;86.19;97536.09;4981729;28;20340;-76
2021/01/22 05:04:12;;;;;;;0.67;0.40;;;;;;;6.30;86.78;97551.72;4990023;28;20214;-77
2021/01/22 05:06:38;;;;;;;0.30;0.20;;;;;;;6.37;86.78;97552.25;4982457;28;20202;-77
2021/01/22 05:09:05;;;;;;;0.30;0.20;;;;;;;6.31;86.35;97573.28;4989736;28;20224;-76
2021/01/22 05:11:31;;;;;;;0.97;0.20;;;;;;;6.30;86.61;97580.22;4989005;28;20243;-75
2021/01/22 05:13:57;;;;;;;0.63;0.40;;;;;;;6.22;87.34;97599.59;4996227;28;20276;-75
2021/01/22 05:16:24;;;;;;;0.20;0.20;;;;;;;6.11;87.18;97608.72;4985532;28;20200;-75
2021/01/22 05:18:50;;;;;;;0.10;0.10;;;;;;;5.99;85.20;97639.53;4988231;28;20257;-76
2021/01/22 05:21:18;;;;;;;0.10;0.10;;;;;;;5.77;84.43;97656.00;4989565;28;20198;-75
2021/01/22 05:23:44;;;;;;;0.10;0.10;;;;;;;5.62;84.92;97665.25;4989511;28;20207;-75
2021/01/22 05:26:12;;;;;;;0.10;0.10;;;;;;;5.42;84.55;97697.16;4986792;28;20211;-75
2021/01/22 05:28:39;;;;;;;0.17;0.17;;;;;;;5.30;84.09;97708.03;4988096;28;20222;-77
2021/01/22 05:31:07;;;;;;;0.30;0.10;;;;;;;5.15;83.28;97712.94;4987550;28;20201;-76
2021/01/22 05:33:53;;;;;;;0.10;0.10;;;;;;;5.09;83.75;97715.75;4986403;28;20207;-75
2021/01/22 05:36:25;;;;;;;0.10;0.10;;;;;;;5.05;84.10;97724.53;4981761;28;20659;-76
2021/01/22 05:38:51;;;;;;;0.10;0.10;;;;;;;4.83;84.71;97760.75;4988664;28;20704;-77
2021/01/22 05:41:17;;;;;;;0.63;0.20;;;;;;;4.78;84.81;97734.25;4987558;28;20201;-77
2021/01/22 05:43:43;;;;;;;0.10;0.10;;;;;;;4.75;85.13;97762.78;4989145;28;20243;-76
2021/01/22 05:46:14;;;;;;;0.10;0.10;;;;;;;4.77;85.03;97785.06;4987702;28;20201;-76
2021/01/22 05:48:41;;;;;;;0.10;0.10;;;;;;;4.78;84.66;97773.84;4986445;28;20239;-77
2021/01/22 05:51:08;;;;;;;0.10;0.10;;;;;;;4.76;84.29;97774.81;4989911;28;20204;-76
2021/01/22 05:53:38;;;;;;;0.20;0.20;;;;;;;4.73;85.10;97786.09;4990468;28;20723;-77
2021/01/22 05:56:06;;;;;;;0.10;0.10;;;;;;;4.74;85.06;97789.53;4988938;28;20212;-77
2021/01/22 05:58:33;;;;;;;0.20;0.20;;;;;;;4.68;84.56;97795.78;4992976;28;20230;-76
2021/01/22 06:01:07;;;;;;;0.60;0.60;;;;;;;4.57;84.35;97792.75;4991295;28;20203;-75
2021/01/22 06:03:33;;;;;;;0.20;0.20;;;;;;;4.40;84.13;97801.13;4985814;28;20210;-76
2021/01/22 06:06:00;;;;;;;0.20;0.20;;;;;;;4.27;83.59;97803.31;4991092;28;20203;-75
2021/01/22 06:08:26;;;;;;;0.37;0.30;;;;;;;4.24;83.52;97811.19;4990371;28;20219;-75
2021/01/22 06:10:53;;;;;;;0.40;0.40;;;;;;;4.24;82.11;97821.50;4994036;28;20207;-75
2021/01/22 06:13:26;;;;;;;0.40;0.40;;;;;;;4.18;83.48;97834.59;4981880;28;20206;-76
2021/01/22 06:15:54;;;;;;;0.50;0.50;;;;;;;4.24;84.04;97821.50;4994426;28;20696;-76
2021/01/22 06:18:28;;;;;;;0.30;0.30;;;;;;;4.25;83.08;97837.84;4983307;28;20233;-76
2021/01/22 06:20:59;;;;;;;0.50;0.50;;;;;;;4.30;83.29;97835.91;4990354;28;20274;-75
2021/01/22 06:23:27;;;;;;;0.50;0.50;;;;;;;4.23;82.59;97843.03;4982988;28;20201;-76
2021/01/22 06:25:55;;;;;;;0.60;0.60;;;;;;;4.24;82.27;97857.66;4981516;28;20204;-78
2021/01/22 06:28:23;;;;;;;0.60;0.60;;;;;;;4.22;82.39;97851.66;4975783;28;20279;-76
2021/01/22 06:30:52;;;;;;;0.60;0.47;;;;;;;4.17;81.85;97851.00;4979966;28;20207;-77
2021/01/22 06:33:21;;;;;;;0.50;0.50;;;;;;;4.22;82.25;97849.09;4975857;28;20714;-75
2021/01/22 06:35:48;;;;;;;1.30;0.73;;;;;;;4.26;82.05;97849.81;4973968;28;20200;-76
2021/01/22 06:38:17;;;;;;;0.50;0.50;;;;;;;4.30;82.05;97857.44;4982965;28;20246;-77
2021/01/22 06:40:46;;;;;;;0.50;0.50;;;;;;;4.30;82.02;97867.75;4987286;28;20250;-76
2021/01/22 06:43:12;;;;;;;0.80;0.80;;;;;;;4.32;82.04;97872.84;4978422;28;20281;-76
2021/01/22 06:45:38;;;;;;;1.13;0.60;;;;;;;4.33;82.56;97888.28;4975540;28;20671;-76
2021/01/22 06:48:07;;;;;;;1.13;0.90;;;;;;;4.34;82.65;97902.03;4975561;28;20243;-76
2021/01/22 06:50:34;;;;;;;1.20;1.20;;;;;;;4.41;82.98;97900.13;4981785;28;20334;-76
2021/01/22 06:53:04;;;;;;;1.00;1.00;;;;;;;4.51;82.78;97893.72;4982221;28;20203;-78
2021/01/22 06:55:30;;;;;;;0.73;0.73;;;;;;;4.63;82.51;97905.34;4981842;28;20219;-79
2021/01/22 06:58:24;;;;;;;0.60;0.60;;;;;;;4.67;82.30;97919.84;4984551;28;20230;-78
2021/01/22 07:00:52;;;;;;;0.70;0.63;;;;;;;4.76;82.17;97920.38;4983287;28;20260;-80
2021/01/22 07:03:46;;;;;;;0.70;0.70;;;;;;;4.88;81.73;97921.66;4989295;28;20213;-79
2021/01/22 07:06:50;;;;;;;0.53;0.53;;;;;;;4.98;80.67;97937.69;4983663;28;20206;-79
2021/01/22 07:09:16;;;;;;;0.40;0.40;;;;;;;4.96;80.04;97942.91;4985816;28;20222;-78
2021/01/22 07:11:56;;;;;;;0.60;0.60;;;;;;;4.73;80.37;97945.47;4983541;28;20203;-80
2021/01/22 07:14:45;;;;;;;0.60;0.60;;;;;;;4.63;79.64;97959.63;4985291;28;20281;-78
2021/01/22 07:17:17;;;;;;;1.10;1.10;;;;;;;4.49;79.90;97963.50;4987535;28;20580;-78
2021/01/22 07:19:54;;;;;;;2.33;1.50;;;;;;;4.36;80.33;97951.91;4986522;28;20229;-80
2021/01/22 07:22:21;;;;;;;1.60;1.50;;;;;;;4.24;81.16;97942.00;4985216;28;20208;-79
2021/01/22 07:24:55;;;;;;;1.13;1.13;;;;;;;4.05;81.32;97960.69;4987241;28;20251;-77
2021/01/22 07:27:21;;;;;;;1.40;1.30;;;;;;;4.05;81.89;97945.19;4983952;28;20255;-77
2021/01/22 07:30:12;;;;;;;1.40;1.30;;;;;;;4.10;81.63;97950.19;4984434;28;20224;-77
2021/01/22 07:32:38;;;;;;;1.87;1.77;;;;;;;4.03;81.66;97946.16;4978418;28;20612;-78
2021/01/22 07:35:06;;;;;;;1.53;1.43;;;;;;;4.01;82.37;97942.78;4984254;28;20704;-79
2021/01/22 07:37:39;;;;;;;1.37;1.17;;;;;;;4.16;82.96;97945.69;4982328;28;20208;-79
2021/01/22 07:40:08;;;;;;;1.60;1.50;;;;;;;4.23;82.32;97943.75;4985255;28;20204;-78
2021/01/22 07:42:34;;;;;;;1.40;1.30;;;;;;;4.28;82.05;97965.09;4981421;28;20265;-78
2021/01/22 07:45:09;;;;;;;1.20;1.20;;;;;;;4.23;81.86;97960.97;4984974;28;20811;-79
2021/01/22 07:47:37;;;;;;;1.40;1.30;;;;;;;4.38;82.67;97970.81;4981327;28;20570;-79
2021/01/22 07:50:05;;;;;;;1.83;1.50;;;;;;;4.40;81.88;97981.94;4980737;28;20207;-79
2021/01/22 07:52:35;;;;;;;1.13;1.10;;;;;;;4.44;81.80;97974.88;4982139;28;20623;-78
2021/01/22 07:55:03;;;;;;;1.37;1.27;;;;;;;4.56;82.71;97985.66;4985449;28;20724;-78
2021/01/22 07:57:29;;;;;;;1.50;1.40;;;;;;;4.35;81.22;97992.38;4983173;28;20203;-78
2021/01/22 07:59:57;;;;;;;1.40;1.30;;;;;;;4.53;81.02;97996.09;4987839;28;20643;-78
2021/01/22 08:02:25;;;;;;;1.67;1.57;;;;;;;4.39;80.61;98000.88;4987675;28;20204;-77
2021/01/22 08:04:58;;;;;;;1.70;1.60;;;;;;;4.52;80.64;98001.31;4990378;28;20215;-78
2021/01/22 08:07:32;;;;;;;1.80;1.70;;;;;;;4.71;80.57;98006.69;4986145;28;20202;-77
2021/01/22 08:09:57;;;;;;;1.80;1.70;;;;;;;4.81;80.31;98002.88;4988169;28;20353;-75
2021/01/22 08:12:23;;;;;;;2.53;2.27;;;;;;;5.01;80.24;98011.69;4983204;28;20456;-77
2021/01/22 08:14:50;;;;;;;2.07;1.97;;;;;;;4.95;79.06;97999.81;4987395;28;20279;-76
2021/01/22 08:17:17;;;;;;;2.27;2.10;;;;;;;5.12;79.16;97999.22;4988338;28;20630;-78
2021/01/22 08:19:45;;;;;;;4.67;1.80;;;;;;;5.17;78.40;98011.09;4988965;28;20256;-76
2021/01/22 08:22:14;;;;;;;3.50;2.30;;;;;;;5.28;77.61;98010.69;4986352;28;20204;-78
2021/01/22 08:24:48;;;;;;;2.57;2.07;;;;;;;5.30;78.68;98015.81;4988029;28;20319;-78
2021/01/22 08:27:14;;;;;;;2.60;2.27;;;;;;;5.25;77.52;98012.53;4984978;28;20740;-77
2021/01/22 08:29:40;;;;;;;2.60;2.33;;;;;;;5.19;77.96;98013.59;4986640;28;20748;-76
2021/01/22 08:32:09;;;;;;;3.03;2.30;;;;;;;5.17;77.84;98013.69;4982720;28;20200;-76
2021/01/22 08:34:36;;;;;;;2.83;2.47;;;;;;;5.18;78.32;98011.94;4987896;28;20716;-77
2021/01/22 08:37:05;;;;;;;2.37;2.27;;;;;;;5.25;78.34;98021.16;4984102;28;20211;-77
2021/01/22 08:39:46;;;;;;;3.17;2.87;;;;;;;5.32;77.97;98024.38;4984038;28;20714;-77
2021/01/22 08:42:12;;;;;;;2.53;2.43;;;;;;;5.18;77.82;98036.03;4983243;28;20259;-76
2021/01/22 08:44:50;;;;;;;2.83;2.63;;;;;;;5.08;77.71;98041.59;4983793;28;20213;-83
2021/01/22 08:47:16;;;;;;;2.63;2.43;;;;;;;5.16;78.35;98031.84;4990107;28;20716;-83
2021/01/22 08:49:51;;;;;;;3.73;3.07;;;;;;;5.23;78.07;98032.44;4986760;28;20224;-83
2021/01/22 08:52:18;;;;;;;2.97;2.70;;;;;;;5.23;78.45;98042.78;4987057;28;20208;-84
2021/01/22 08:54:45;;;;;;;3.10;2.87;;;;;;;5.29;78.27;98029.63;4985908;28;20229;-83
2021/01/22 08:57:10;;;;;;;3.20;3.00;;;;;;;5.26;77.81;98028.00;4986019;28;20577;-82
2021/01/22 08:59:46;;;;;;;3.50;3.30;;;;;;;5.12;78.00;98032.84;4987097;28;20235;-83
2021/01/22 09:02:12;;;;;;;4.68;4.38;;;;;;;5.26;78.12;98040.09;4987255;28;20460;-84
2021/01/22 09:04:41;;;;;;;5.10;4.55;;;;;;;5.40;77.51;98034.44;4986929;28;20454;-87
2021/01/22 09:07:16;;;;;;;5.03;4.72;;;;;;;5.52;77.58;98045.16;4982976;28;20438;-81
2021/01/22 09:09:47;;;;;;;4.88;4.47;;;;;;;5.58;76.49;98042.34;4993287;28;20455;-82
2021/01/22 09:12:18;;;;;;;4.82;4.53;;;;;;;5.60;76.45;98033.69;4987962;28;20434;-83
2021/01/22 09:14:52;;;;;;;4.17;3.87;;;;;;;5.61;76.65;98031.06;4992431;28;20224;-82
2021/01/22 09:17:45;;;;;;;4.00;3.70;;;;;;;5.57;75.92;98037.25;4993593;28;20196;-82
2021/01/22 09:20:15;;;;;;;4.17;3.93;;;;;;;5.42;76.39;98037.81;4946880;28;20219;-82
2021/01/22 09:22:43;;;;;;;5.40;5.00;;;;;;;5.35;76.27;98039.75;4985336;28;20229;-82
2021/01/22 09:25:12;;;;;;;4.53;4.23;;;;;;;5.29;76.55;98053.78;4989677;28;20313;-82
2021/01/22 09:27:38;;;;;;;6.80;5.33;;;;;;;5.45;76.71;98060.97;4988758;28;20220;-82
2021/01/22 09:30:07;;;;;;;6.83;6.10;;;;;;;5.52;76.76;98070.19;4992554;28;20220;-81
2021/01/22 09:32:33;;;;;;;6.23;5.10;;;;;;;5.57;76.27;98074.31;4990306;28;20204;-83
2021/01/22 09:34:59;;;;;;;5.20;4.80;;;;;;;5.50;77.10;98075.41;4989076;28;20318;-85
2021/01/22 09:37:25;;;;;;;4.77;4.37;;;;;;;5.45;76.85;98082.53;4988772;28;20650;-82
2021/01/22 09:39:51;;;;;;;4.73;4.33;;;;;;;5.53;76.59;98084.81;4993056;28;20227;-84
2021/01/22 09:42:17;;;;;;;5.03;4.63;;;;;;;5.51;76.26;98089.19;4988061;28;20200;-85
2021/01/22 09:44:43;;;;;;;6.40;4.87;;;;;;;5.60;76.84;98091.44;4987126;28;20666;-84
2021/01/22 09:47:09;;;;;;;6.40;5.90;;;;;;;5.58;76.60;98091.50;4989800;28;20286;-85
2021/01/22 09:49:35;;;;;;;5.60;5.20;;;;;;;5.54;76.45;98096.84;4993275;28;20227;-85
2021/01/22 09:52:01;;;;;;;5.40;5.10;;;;;;;5.50;76.51;98106.47;4989114;28;20254;-84
2021/01/22 09:54:27;;;;;;;7.57;5.93;;;;;;;5.55;76.38;98103.72;4990361;28;20314;-83
2021/01/22 09:56:53;;;;;;;6.83;6.23;;;;;;;5.35;76.28;98109.59;4990646;28;20208;-83
2021/01/22 09:59:19;;;;;;;10.97;6.10;;;;;;;5.41;76.16;98113.72;4993800;28;20227;-82
2021/01/22 10:01:45;;;;;;;6.33;5.83;;;;;;;5.43;76.09;98119.66;4991830;28;20234;-83
2021/01/22 10:04:11;;;;;;;6.73;6.13;;;;;;;5.37;76.85;98125.91;4989494;28;20608;-83
2021/01/22 10:06:37;;;;;;;6.90;6.40;;;;;;;5.23;76.95;98123.78;4986443;28;20212;-76
2021/01/22 10:09:03;;;;;;;6.17;5.77;;;;;;;5.22;76.20;98116.94;4985797;28;20224;-77
2021/01/22 10:11:29;;;;;;;6.97;5.83;;;;;;;5.34;77.18;98131.19;4985602;28;20242;-76
2021/01/22 10:13:55;;;;;;;6.57;5.93;;;;;;;5.41;76.93;98122.34;4985520;28;20207;-76
2021/01/22 10:16:24;;;;;;;6.73;6.23;;;;;;;5.45;76.73;98129.09;4985060;28;20267;-77
2021/01/22 10:18:51;;;;;;;6.97;6.30;;;;;;;5.38;76.00;98130.19;4986119;28;20294;-77
2021/01/22 10:21:18;;;;;;;7.50;6.83;;;;;;;5.34;76.59;98131.19;4985073;28;20200;-77
2021/01/22 10:23:45;;;;;;;6.37;5.87;;;;;;;5.41;76.78;98127.50;4985492;28;20208;-77
2021/01/22 10:26:10;;;;;;;10.10;6.40;;;;;;;5.43;76.29;98128.31;4986688;28;20230;-76
2021/01/22 10:28:36;;;;;;;6.60;6.10;;;;;;;5.48;76.25;98130.72;4985323;28;20223;-77
2021/01/22 10:31:02;;;;;;;7.53;6.10;;;;;;;5.49;75.82;98134.97;4987448;28;20247;-77
2021/01/22 10:33:29;;;;;;;6.23;5.63;;;;;;;5.48;75.93;98147.06;4984694;28;20205;-77
2021/01/22 10:35:55;;;;;;;6.53;6.03;;;;;;;5.38;75.54;98146.56;4985693;28;20227;-76
2021/01/22 10:38:21;;;;;;;7.13;6.53;;;;;;;5.51;75.88;98134.03;4985379;28;20223;-76
2021/01/22 10:40:47;;;;;;;6.57;5.97;;;;;;;5.51;75.54;98136.63;4985151;28;20201;-77
2021/01/22 10:43:12;;;;;;;6.77;6.27;;;;;;;5.50;75.65;98136.69;4986394;28;20200;-78
2021/01/22 10:45:38;;;;;;;6.67;5.93;;;;;;;5.48;75.94;98141.06;4985403;28;20200;-77
2021/01/22 10:48:05;;;;;;;6.07;5.47;;;;;;;5.34;76.11;98144.13;4986418;28;20255;-77
2021/01/22 10:50:32;;;;;;;6.53;5.93;;;;;;;5.50;75.70;98140.09;4986084;28;20211;-78
2021/01/22 10:52:57;;;;;;;5.93;5.33;;;;;;;5.62;75.57;98138.81;4984206;28;20208;-78
2021/01/22 10:55:23;;;;;;;5.50;5.10;;;;;;;5.67;75.79;98136.94;4986950;28;20228;-77
2021/01/22 10:57:49;;;;;;;5.30;4.80;;;;;;;5.82;74.99;98134.66;4979564;28;20260;-77
2021/01/22 11:00:16;;;;;;;4.80;4.40;;;;;;;5.94;74.70;98137.63;4985023;28;20247;-77
2021/01/22 11:02:42;;;;;;;6.57;5.30;;;;;;;6.05;74.27;98142.47;4980546;28;20210;-77
2021/01/22 11:05:09;;;;;;;5.53;4.80;;;;;;;6.08;74.70;98144.09;4985682;28;20209;-77
2021/01/22 11:07:35;;;;;;;5.03;4.53;;;;;;;5.94;74.28;98147.16;4982846;28;20229;-77
2021/01/22 11:10:03;;;;;;;4.93;4.60;;;;;;;5.86;74.04;98141.41;4986456;28;20696;-78
2021/01/22 11:12:28;;;;;;;5.20;4.70;;;;;;;5.82;74.40;98152.78;4981666;28;20212;-77
2021/01/22 11:14:54;;;;;;;5.80;4.90;;;;;;;6.03;75.01;98164.16;4985258;28;20630;-76
2021/01/22 11:17:20;;;;;;;5.50;4.80;;;;;;;6.09;75.25;98161.31;4981308;28;20205;-77
2021/01/22 11:19:46;;;;;;;5.50;5.00;;;;;;;6.03;74.38;98164.16;4980623;28;20694;-77
2021/01/22 11:22:12;;;;;;;4.90;4.30;;;;;;;6.01;73.60;98161.59;4982126;28;20283;-83
2021/01/22 11:24:39;;;;;;;4.50;4.10;;;;;;;5.99;73.54;98165.16;4987322;28;20210;-83
2021/01/22 11:27:05;;;;;;;5.00;4.60;;;;;;;5.87;73.72;98171.59;4984996;28;20617;-81
2021/01/22 11:29:31;;;;;;;4.60;4.20;;;;;;;5.86;73.54;98168.16;4986869;28;20232;-81
2021/01/22 11:31:57;;;;;;;4.87;4.47;;;;;;;6.03;73.62;98170.16;4980240;28;20547;-82
2021/01/22 11:34:22;;;;;;;5.20;4.27;;;;;;;6.10;73.36;98166.41;4987678;28;20686;-81
2021/01/22 11:36:49;;;;;;;4.87;4.47;;;;;;;5.88;72.85;98165.50;4984189;28;20203;-81
2021/01/22 11:39:15;;;;;;;4.57;3.57;;;;;;;5.99;73.33;98172.94;4980702;28;20717;-76
2021/01/22 11:41:42;;;;;;;4.50;4.10;;;;;;;6.02;73.22;98180.56;4979344;28;20211;-76
2021/01/22 11:44:09;;;;;;;4.57;4.17;;;;;;;5.98;73.44;98185.00;4983097;28;20666;-76
2021/01/22 11:46:35;;;;;;;4.40;4.03;;;;;;;5.94;73.43;98184.25;4979633;28;20292;-76